createdAt,value
2017-09-17T00:00:34.125Z,11.65
2017-09-17T00:03:00.521Z,11.45
2017-09-17T00:05:27.643Z,10.73
2017-09-17T00:07:54.047Z,9.88
2017-09-17T00:10:20.394Z,10.75
2017-09-17T00:12:46.751Z,10.88
2017-09-17T00:15:13.851Z,11.45
2017-09-17T00:17:40.226Z,10.00
2017-09-17T00:20:07.310Z,11.70
2017-09-17T00:22:33.913Z,11.32
2017-09-17T00:25:01.032Z,11.48
2017-09-17T00:27:27.342Z,16.20
2017-09-17T00:29:53.700Z,14.85
2017-09-17T00:32:20.064Z,15.27
2017-09-17T00:34:47.135Z,23.23
2017-09-17T00:37:13.489Z,15.20
2017-09-17T00:39:39.874Z,14.02
2017-09-17T00:42:06.274Z,13.18
2017-09-17T00:44:33.720Z,11.12
2017-09-17T00:47:00.107Z,10.90
2017-09-17T00:49:26.530Z,9.75
2017-09-17T00:51:52.920Z,10.00
2017-09-17T00:54:20.066Z,10.95
2017-09-17T00:56:46.458Z,11.40
2017-09-17T00:59:12.882Z,11.02
2017-09-17T01:01:39.293Z,11.40
2017-09-17T01:04:05.657Z,11.90
2017-09-17T01:06:32.443Z,10.73
2017-09-17T01:08:59.578Z,11.12
2017-09-17T01:11:26.714Z,10.13
2017-09-17T01:13:53.112Z,11.18
2017-09-17T01:16:19.479Z,9.95
2017-09-17T01:18:45.845Z,10.52
2017-09-17T01:21:12.251Z,10.35
2017-09-17T01:23:39.578Z,10.52
2017-09-17T01:26:05.960Z,10.15
2017-09-17T01:28:32.324Z,10.50
2017-09-17T01:30:58.706Z,10.88
2017-09-17T01:33:26.146Z,11.38
2017-09-17T01:35:53.229Z,9.80
2017-09-17T01:38:19.579Z,10.43
2017-09-17T01:40:46.007Z,11.70
2017-09-17T01:43:12.379Z,9.77
2017-09-17T01:45:38.727Z,10.73
2017-09-17T01:48:05.172Z,11.20
2017-09-17T01:50:31.501Z,11.38
2017-09-17T01:52:57.850Z,11.40
2017-09-17T01:55:24.545Z,11.43
2017-09-17T01:57:51.614Z,11.73
2017-09-17T02:00:18.008Z,11.30
2017-09-17T02:02:45.104Z,11.25
2017-09-17T02:05:11.463Z,12.15
2017-09-17T02:07:37.813Z,10.30
2017-09-17T02:10:04.897Z,10.95
2017-09-17T02:12:31.597Z,10.20
2017-09-17T02:14:58.726Z,10.93
2017-09-17T02:17:25.083Z,12.90
2017-09-17T02:19:52.178Z,11.57
2017-09-17T02:22:18.533Z,11.12
2017-09-17T02:24:44.869Z,11.00
2017-09-17T02:27:11.199Z,12.02
2017-09-17T02:29:37.566Z,12.27
2017-09-17T02:32:03.924Z,13.40
2017-09-17T02:34:31.636Z,13.68
2017-09-17T02:36:58.708Z,12.55
2017-09-17T02:39:25.098Z,12.70
2017-09-17T02:41:51.503Z,13.82
2017-09-17T02:44:17.868Z,14.52
2017-09-17T02:46:44.980Z,13.18
2017-09-17T02:49:11.407Z,12.80
2017-09-17T02:51:37.780Z,14.35
2017-09-17T02:54:04.892Z,13.50
2017-09-17T02:56:31.263Z,14.00
2017-09-17T02:58:58.361Z,13.55
2017-09-17T03:01:25.129Z,10.77
2017-09-17T03:06:24.834Z,11.55
2017-09-17T03:08:51.143Z,11.65
2017-09-17T03:11:17.474Z,11.80
2017-09-17T03:13:43.809Z,12.60
2017-09-17T03:16:10.177Z,12.37
2017-09-17T03:18:37.294Z,12.52
2017-09-17T03:21:03.647Z,13.95
2017-09-17T03:23:35.878Z,15.50
2017-09-17T03:26:02.259Z,15.05
2017-09-17T03:28:29.686Z,14.65
2017-09-17T03:30:56.030Z,14.68
2017-09-17T03:33:22.420Z,12.30
2017-09-17T03:35:48.797Z,12.20
2017-09-17T03:38:15.860Z,12.50
2017-09-17T03:40:42.958Z,11.25
2017-09-17T03:43:09.336Z,11.98
2017-09-17T03:45:36.501Z,12.57
2017-09-17T03:48:02.852Z,12.20
2017-09-17T03:50:29.617Z,12.90
2017-09-17T03:52:55.980Z,11.90
2017-09-17T03:55:22.338Z,12.80
2017-09-17T03:57:48.702Z,12.50
2017-09-17T04:00:15.059Z,13.60
2017-09-17T04:02:41.456Z,12.27
2017-09-17T04:05:07.844Z,13.20
2017-09-17T04:07:34.203Z,12.60
2017-09-17T04:10:00.537Z,12.57
2017-09-17T04:12:27.187Z,12.50
2017-09-17T04:14:53.547Z,13.80
2017-09-17T04:17:20.640Z,13.02
2017-09-17T04:19:46.986Z,12.95
2017-09-17T04:22:13.320Z,13.10
2017-09-17T04:24:39.996Z,15.85
2017-09-17T04:27:07.082Z,17.05
2017-09-17T04:29:33.417Z,14.50
2017-09-17T04:31:59.785Z,12.05
2017-09-17T04:34:26.504Z,11.63
2017-09-17T04:36:52.838Z,10.57
2017-09-17T04:39:19.933Z,8.13
2017-09-17T04:41:46.297Z,9.03
2017-09-17T04:44:12.651Z,9.13
2017-09-17T04:46:39.721Z,8.40
2017-09-17T04:49:06.849Z,8.63
2017-09-17T04:51:33.229Z,8.47
2017-09-17T04:53:59.581Z,8.80
2017-09-17T04:56:25.944Z,8.13
2017-09-17T04:58:52.324Z,7.97
2017-09-17T05:01:18.986Z,8.37
2017-09-17T05:03:45.385Z,10.03
2017-09-17T05:06:11.727Z,9.67
2017-09-17T05:08:38.173Z,10.77
2017-09-17T05:11:04.524Z,10.80
2017-09-17T05:13:31.616Z,10.70
2017-09-17T05:15:57.964Z,10.30
2017-09-17T05:18:24.335Z,11.33
2017-09-17T05:20:51.435Z,12.60
2017-09-17T05:23:17.798Z,12.13
2017-09-17T05:25:44.155Z,10.40
2017-09-17T05:28:10.847Z,12.70
2017-09-17T05:30:37.213Z,11.75
2017-09-17T05:33:03.583Z,11.80
2017-09-17T05:35:29.973Z,12.60
2017-09-17T05:37:57.094Z,11.30
2017-09-17T05:40:23.468Z,12.40
2017-09-17T05:42:49.823Z,12.27
2017-09-17T05:45:16.230Z,12.40
2017-09-17T05:47:42.598Z,12.20
2017-09-17T05:50:08.965Z,13.07
2017-09-17T05:52:36.070Z,11.43
2017-09-17T05:55:02.442Z,12.95
2017-09-17T05:57:29.541Z,14.57
2017-09-17T05:59:55.949Z,14.68
2017-09-17T06:02:22.291Z,13.88
2017-09-17T06:04:48.637Z,13.07
2017-09-17T06:07:15.302Z,14.70
2017-09-17T06:09:42.391Z,17.65
2017-09-17T06:12:08.740Z,16.33
2017-09-17T06:14:35.111Z,16.75
2017-09-17T06:17:02.237Z,16.92
2017-09-17T06:19:28.641Z,17.05
2017-09-17T06:21:55.002Z,17.73
2017-09-17T06:24:21.407Z,18.27
2017-09-17T06:26:47.777Z,18.05
2017-09-17T06:29:14.508Z,16.67
2017-09-17T06:31:41.579Z,16.35
2017-09-17T06:34:07.973Z,16.60
2017-09-17T06:36:34.339Z,16.50
2017-09-17T06:39:00.727Z,14.00
2017-09-17T06:41:27.114Z,15.63
2017-09-17T06:43:53.444Z,14.02
2017-09-17T06:46:20.535Z,13.32
2017-09-17T06:48:47.023Z,13.48
2017-09-17T06:51:13.675Z,18.05
2017-09-17T06:56:13.174Z,13.60
2017-09-17T06:58:39.562Z,14.50
2017-09-17T07:01:05.927Z,14.73
2017-09-17T07:03:32.278Z,14.83
2017-09-17T07:05:58.652Z,14.30
2017-09-17T07:08:24.992Z,13.40
2017-09-17T07:10:52.072Z,13.80
2017-09-17T07:13:18.762Z,14.87
2017-09-17T07:15:45.898Z,13.57
2017-09-17T07:18:12.244Z,13.20
2017-09-17T07:20:39.387Z,12.70
2017-09-17T07:23:05.821Z,13.27
2017-09-17T07:25:32.152Z,12.57
2017-09-17T07:27:58.511Z,13.07
2017-09-17T07:30:24.934Z,13.70
2017-09-17T07:32:51.281Z,13.57
2017-09-17T07:35:17.995Z,13.17
2017-09-17T07:37:45.114Z,13.30
2017-09-17T07:40:11.510Z,12.83
2017-09-17T07:42:37.884Z,13.10
2017-09-17T07:45:04.232Z,13.80
2017-09-17T07:47:30.947Z,13.23
2017-09-17T07:49:57.448Z,11.50
2017-09-17T07:52:23.799Z,13.30
2017-09-17T07:54:50.210Z,11.67
2017-09-17T07:57:16.592Z,10.60
2017-09-17T07:59:44.040Z,9.70
2017-09-17T08:02:10.419Z,9.03
2017-09-17T08:04:36.807Z,7.87
2017-09-17T08:07:04.244Z,8.93
2017-09-17T08:09:31.364Z,7.37
2017-09-17T08:11:57.716Z,8.57
2017-09-17T08:14:24.095Z,8.20
2017-09-17T08:16:50.454Z,8.67
2017-09-17T08:19:16.831Z,7.90
2017-09-17T08:21:43.252Z,7.93
2017-09-17T08:24:09.964Z,7.80
2017-09-17T08:26:36.307Z,7.47
2017-09-17T08:29:03.421Z,6.83
2017-09-17T08:31:29.809Z,7.83
2017-09-17T08:33:56.217Z,8.77
2017-09-17T08:36:22.611Z,7.37
2017-09-17T08:38:48.943Z,8.50
2017-09-17T08:41:15.603Z,8.20
2017-09-17T08:43:42.004Z,7.83
2017-09-17T08:46:08.342Z,7.23
2017-09-17T08:48:34.764Z,9.00
2017-09-17T08:51:01.131Z,5.60
2017-09-17T08:53:28.300Z,6.00
2017-09-17T08:55:55.442Z,8.57
2017-09-17T08:58:22.877Z,9.13
2017-09-17T09:00:49.303Z,7.30
2017-09-17T09:03:15.711Z,6.80
2017-09-17T09:05:42.095Z,7.20
2017-09-17T09:08:08.534Z,7.43
2017-09-17T09:10:35.282Z,7.60
2017-09-17T09:13:01.711Z,7.20
2017-09-17T09:15:28.126Z,6.20
2017-09-17T09:17:54.530Z,6.73
2017-09-17T09:20:20.976Z,6.97
2017-09-17T09:22:48.162Z,6.90
2017-09-17T09:25:14.583Z,8.83
2017-09-17T09:27:40.932Z,7.57
2017-09-17T09:30:07.350Z,7.37
2017-09-17T09:32:34.787Z,7.90
2017-09-17T09:35:01.209Z,7.43
2017-09-17T09:37:28.331Z,7.07
2017-09-17T09:39:55.515Z,6.90
2017-09-17T09:42:21.970Z,7.00
2017-09-17T09:44:48.424Z,7.07
2017-09-17T09:47:14.891Z,7.60
2017-09-17T09:49:42.109Z,6.50
2017-09-17T09:52:08.556Z,7.70
2017-09-17T09:54:35.296Z,8.67
2017-09-17T09:57:02.465Z,9.40
2017-09-17T09:59:29.635Z,6.83
2017-09-17T10:01:56.046Z,6.70
2017-09-17T10:04:22.433Z,6.83
2017-09-17T10:06:49.208Z,6.83
2017-09-17T10:09:16.318Z,7.97
2017-09-17T10:11:42.700Z,6.50
2017-09-17T10:14:09.155Z,8.00
2017-09-17T10:16:35.551Z,7.47
2017-09-17T10:19:02.698Z,7.30
2017-09-17T10:21:29.124Z,6.47
2017-09-17T10:23:55.784Z,6.30
2017-09-17T10:26:22.181Z,5.97
2017-09-17T10:28:48.611Z,7.10
2017-09-17T10:31:15.022Z,5.20
2017-09-17T10:33:41.461Z,5.50
2017-09-17T10:36:08.235Z,5.07
2017-09-17T10:38:34.640Z,6.00
2017-09-17T10:41:01.023Z,4.90
2017-09-17T10:43:27.415Z,4.83
2017-09-17T10:45:54.514Z,6.63
2017-09-17T10:48:20.933Z,5.47
2017-09-17T10:50:47.274Z,6.27
2017-09-17T10:53:13.756Z,5.77
2017-09-17T10:55:40.883Z,5.80
2017-09-17T10:58:07.633Z,5.70
2017-09-17T11:00:33.966Z,5.50
2017-09-17T11:03:01.071Z,5.30
2017-09-17T11:05:27.454Z,4.97
2017-09-17T11:07:54.597Z,4.63
2017-09-17T11:10:21.708Z,4.40
2017-09-17T11:12:48.083Z,3.70
2017-09-17T11:15:15.544Z,5.10
2017-09-17T11:17:42.640Z,4.70
2017-09-17T11:20:09.010Z,4.70
2017-09-17T11:22:35.376Z,4.67
2017-09-17T11:25:01.720Z,4.37
2017-09-17T11:27:28.111Z,3.50
2017-09-17T11:29:54.706Z,3.70
2017-09-17T11:32:21.356Z,3.70
2017-09-17T11:34:47.714Z,3.73
2017-09-17T11:37:14.099Z,3.30
2017-09-17T11:39:40.493Z,3.53
2017-09-17T11:42:06.862Z,4.30
2017-09-17T11:44:33.254Z,3.87
2017-09-17T11:46:59.587Z,3.63
2017-09-17T11:49:26.369Z,4.60
2017-09-17T11:51:52.726Z,4.10
2017-09-17T11:54:19.887Z,3.90
2017-09-17T11:56:46.275Z,3.80
2017-09-17T11:59:12.636Z,2.60
2017-09-17T12:01:39.774Z,4.50
2017-09-17T12:04:06.865Z,4.07
2017-09-17T12:06:33.528Z,4.37
2017-09-17T12:08:59.898Z,4.27
2017-09-17T12:11:26.299Z,4.10
2017-09-17T12:13:52.687Z,4.30
2017-09-17T12:16:19.787Z,4.03
2017-09-17T12:18:46.912Z,4.20
2017-09-17T12:21:13.303Z,4.23
2017-09-17T12:23:39.991Z,3.90
2017-09-17T12:26:06.376Z,3.30
2017-09-17T12:28:32.731Z,3.80
2017-09-17T12:30:59.895Z,3.97
2017-09-17T12:33:26.264Z,3.13
2017-09-17T12:35:52.616Z,3.00
2017-09-17T12:38:18.988Z,3.10
2017-09-17T12:40:45.375Z,2.77
2017-09-17T12:43:11.735Z,3.47
2017-09-17T12:45:38.492Z,2.73
2017-09-17T12:48:04.862Z,2.90
2017-09-17T12:50:32.146Z,3.70
2017-09-17T12:52:58.554Z,3.47
2017-09-17T12:55:24.899Z,3.30
2017-09-17T12:57:51.271Z,2.77
2017-09-17T13:00:18.356Z,3.40
2017-09-17T13:02:44.734Z,3.87
2017-09-17T13:05:11.897Z,3.57
2017-09-17T13:07:39.041Z,3.70
2017-09-17T13:10:05.415Z,3.73
2017-09-17T13:12:31.820Z,3.67
2017-09-17T13:14:58.196Z,4.10
2017-09-17T13:17:24.615Z,3.90
2017-09-17T13:19:51.277Z,3.67
2017-09-17T13:22:17.659Z,3.77
2017-09-17T13:24:44.020Z,4.10
2017-09-17T13:27:10.418Z,3.63
2017-09-17T13:29:36.765Z,3.03
2017-09-17T13:32:03.134Z,4.40
2017-09-17T13:34:30.243Z,4.33
2017-09-17T13:36:56.624Z,4.20
2017-09-17T13:39:23.782Z,4.07
2017-09-17T13:41:50.980Z,4.80
2017-09-17T13:44:17.386Z,3.70
2017-09-17T13:46:44.072Z,3.77
2017-09-17T13:49:10.641Z,4.63
2017-09-17T13:51:37.016Z,3.03
2017-09-17T13:54:03.438Z,2.97
2017-09-17T13:56:29.853Z,3.37
2017-09-17T13:58:56.276Z,2.93
2017-09-17T14:01:23.641Z,3.07
2017-09-17T14:03:51.773Z,2.90
2017-09-17T14:06:28.810Z,2.60
2017-09-17T14:09:01.177Z,2.27
2017-09-17T14:11:27.576Z,2.50
2017-09-17T14:13:54.283Z,2.00
2017-09-17T14:16:20.680Z,2.73
2017-09-17T14:18:47.070Z,2.40
2017-09-17T14:21:13.481Z,2.50
2017-09-17T14:23:40.589Z,2.20
2017-09-17T14:26:06.987Z,2.40
2017-09-17T14:28:33.380Z,1.90
2017-09-17T14:31:00.531Z,2.80
2017-09-17T14:33:27.604Z,2.00
2017-09-17T14:35:53.979Z,1.90
2017-09-17T14:38:20.369Z,2.30
2017-09-17T14:40:46.992Z,1.77
2017-09-17T14:43:13.343Z,2.07
2017-09-17T14:45:39.700Z,1.93
2017-09-17T14:48:07.188Z,1.63
2017-09-17T14:50:34.302Z,2.40
2017-09-17T14:53:00.705Z,1.93
2017-09-17T14:55:27.062Z,1.80
2017-09-17T14:57:53.419Z,1.80
2017-09-17T15:00:20.520Z,1.80
2017-09-17T15:02:47.216Z,1.53
2017-09-17T15:05:14.355Z,1.60
2017-09-17T15:07:41.511Z,1.53
2017-09-17T15:10:08.608Z,1.70
2017-09-17T15:12:34.993Z,1.30
2017-09-17T15:15:01.350Z,1.40
2017-09-17T15:17:27.727Z,1.60
2017-09-17T15:19:54.110Z,1.60
2017-09-17T15:22:20.494Z,2.00
2017-09-17T15:24:47.586Z,1.80
2017-09-17T15:27:13.929Z,1.27
2017-09-17T15:29:40.603Z,1.97
2017-09-17T15:32:06.983Z,1.43
2017-09-17T15:34:34.079Z,1.40
2017-09-17T15:37:00.475Z,1.70
2017-09-17T15:39:26.871Z,2.10
2017-09-17T15:41:53.270Z,2.20
2017-09-17T15:44:19.596Z,1.80
2017-09-17T15:46:46.018Z,1.17
2017-09-17T15:49:12.540Z,1.47
2017-09-17T15:51:38.968Z,1.50
2017-09-17T15:54:05.354Z,1.10
2017-09-17T15:56:31.754Z,1.50
2017-09-17T15:58:58.904Z,1.20
2017-09-17T16:01:26.024Z,1.70
2017-09-17T16:03:52.421Z,1.70
2017-09-17T16:06:18.827Z,1.60
2017-09-17T16:08:45.243Z,1.27
2017-09-17T16:11:12.338Z,1.43
2017-09-17T16:13:39.009Z,1.70
2017-09-17T16:16:05.389Z,1.40
2017-09-17T16:18:31.756Z,1.67
2017-09-17T16:20:58.200Z,1.50
2017-09-17T16:23:24.571Z,1.20
2017-09-17T16:25:50.978Z,1.37
2017-09-17T16:28:17.397Z,1.10
2017-09-17T16:30:44.119Z,1.00
2017-09-17T16:33:10.533Z,1.10
2017-09-17T16:35:36.948Z,1.90
2017-09-17T16:38:03.367Z,0.90
2017-09-17T16:40:29.744Z,1.37
2017-09-17T16:42:56.127Z,1.03
2017-09-17T16:45:22.529Z,1.30
2017-09-17T16:47:49.673Z,1.07
2017-09-17T16:50:17.003Z,1.57
2017-09-17T16:52:43.432Z,1.30
2017-09-17T16:55:09.869Z,1.40
2017-09-17T16:57:36.645Z,1.33
2017-09-17T17:00:03.067Z,1.07
2017-09-17T17:02:30.211Z,1.37
2017-09-17T17:04:57.365Z,1.27
2017-09-17T17:07:24.526Z,1.60
2017-09-17T17:09:50.926Z,1.17
2017-09-17T17:12:18.155Z,1.37
2017-09-17T17:14:44.617Z,1.97
2017-09-17T17:17:11.774Z,1.47
2017-09-17T17:19:39.245Z,2.10
2017-09-17T17:22:05.730Z,2.80
2017-09-17T17:24:32.193Z,2.17
2017-09-17T17:26:59.386Z,2.20
2017-09-17T17:29:25.757Z,1.60
2017-09-17T17:31:52.209Z,1.47
2017-09-17T17:34:19.371Z,1.30
2017-09-17T17:36:45.797Z,3.10
2017-09-17T17:39:12.236Z,13.70
2017-09-17T17:41:38.681Z,4.90
2017-09-17T17:44:05.058Z,3.43
2017-09-17T17:46:31.462Z,4.03
2017-09-17T17:48:57.861Z,3.97
2017-09-17T17:51:24.283Z,4.00
2017-09-17T17:53:51.081Z,6.20
2017-09-17T17:56:17.513Z,3.53
2017-09-17T17:58:43.884Z,3.40
2017-09-17T18:01:10.351Z,2.87
2017-09-17T18:03:36.822Z,2.47
2017-09-17T18:06:04.063Z,3.00
2017-09-17T18:08:31.205Z,3.30
2017-09-17T18:10:57.599Z,3.50
2017-09-17T18:13:24.036Z,3.20
2017-09-17T18:15:50.829Z,3.97
2017-09-17T18:18:18.043Z,4.60
2017-09-17T18:20:44.443Z,3.20
2017-09-17T18:23:10.909Z,3.20
2017-09-17T18:25:37.349Z,3.10
2017-09-17T18:28:03.737Z,2.80
2017-09-17T18:30:30.159Z,3.00
2017-09-17T18:32:56.665Z,4.03
2017-09-17T18:35:23.901Z,3.23
2017-09-17T18:37:50.462Z,3.27
2017-09-17T18:40:16.907Z,2.60
2017-09-17T18:42:43.642Z,2.90
2017-09-17T18:45:11.692Z,2.10
2017-09-17T18:47:38.171Z,1.87
2017-09-17T18:50:04.869Z,2.27
2017-09-17T18:52:31.337Z,4.80
2017-09-17T18:54:57.844Z,4.33
2017-09-17T18:57:24.353Z,5.80
2017-09-17T18:59:51.609Z,7.00
2017-09-17T19:02:18.009Z,7.60
2017-09-17T19:04:47.814Z,11.77
2017-09-17T19:07:14.289Z,10.57
2017-09-17T19:09:40.768Z,8.60
2017-09-17T19:12:08.138Z,8.90
2017-09-17T19:14:34.601Z,7.20
2017-09-17T19:17:01.124Z,5.97
2017-09-17T19:19:28.394Z,6.00
2017-09-17T19:21:55.155Z,5.53
2017-09-17T19:24:21.704Z,4.57
2017-09-17T19:26:48.146Z,3.60
2017-09-17T19:29:14.643Z,2.93
2017-09-17T19:31:41.115Z,3.50
2017-09-17T19:34:07.559Z,3.90
2017-09-17T19:36:34.025Z,9.85
2017-09-17T19:39:00.560Z,9.90
2017-09-17T19:41:27.188Z,6.87
2017-09-17T19:43:53.668Z,4.62
2017-09-17T19:46:20.165Z,4.50
2017-09-17T19:48:46.734Z,8.85
2017-09-17T19:51:13.187Z,7.70
2017-09-17T19:53:40.076Z,8.80
2017-09-17T19:56:06.559Z,11.90
2017-09-17T19:58:33.021Z,10.05
2017-09-17T20:00:59.497Z,9.80
2017-09-17T20:03:25.933Z,11.75
2017-09-17T20:05:52.436Z,13.68
2017-09-17T20:08:18.928Z,14.35
2017-09-17T20:10:45.400Z,12.10
2017-09-17T20:13:11.907Z,10.45
2017-09-17T20:15:39.476Z,9.70
2017-09-17T20:18:05.925Z,9.95
2017-09-17T20:20:33.054Z,8.68
2017-09-17T20:22:59.569Z,8.70
2017-09-17T20:25:26.039Z,6.93
2017-09-17T20:27:52.460Z,6.43
2017-09-17T20:30:18.871Z,5.85
2017-09-17T20:32:46.068Z,6.30
2017-09-17T20:35:12.457Z,7.15
2017-09-17T20:37:38.869Z,6.10
2017-09-17T20:40:05.238Z,6.55
2017-09-17T20:42:31.893Z,5.43
2017-09-17T20:44:58.313Z,5.53
2017-09-17T20:47:24.745Z,5.35
2017-09-17T20:49:51.168Z,5.30
2017-09-17T20:52:17.564Z,6.50
2017-09-17T20:54:44.691Z,5.35
2017-09-17T20:57:11.068Z,6.22
2017-09-17T20:59:37.771Z,5.43
2017-09-17T21:02:04.160Z,5.00
2017-09-17T21:04:30.553Z,4.75
2017-09-17T21:06:57.001Z,5.03
2017-09-17T21:09:23.357Z,4.95
2017-09-17T21:11:49.768Z,4.68
2017-09-17T21:14:16.155Z,5.47
2017-09-17T21:16:42.562Z,5.82
2017-09-17T21:19:08.930Z,5.40
2017-09-17T21:21:36.371Z,5.55
2017-09-17T21:24:02.746Z,5.25
2017-09-17T21:26:29.102Z,6.12
2017-09-17T21:28:56.431Z,4.75
2017-09-17T21:31:22.855Z,5.35
2017-09-17T21:33:49.228Z,5.32
2017-09-17T21:36:15.602Z,5.12
2017-09-17T21:38:42.049Z,4.85
2017-09-17T21:41:08.425Z,5.70
2017-09-17T21:43:34.817Z,4.78
2017-09-17T21:46:01.177Z,5.43
2017-09-17T21:48:27.649Z,4.93
2017-09-17T21:50:54.014Z,4.43
2017-09-17T21:53:20.389Z,4.20
2017-09-17T21:55:47.590Z,3.85
2017-09-17T21:58:14.022Z,4.18
2017-09-17T22:00:40.783Z,4.00
2017-09-17T22:03:07.126Z,3.20
2017-09-17T22:05:33.525Z,3.37
2017-09-17T22:07:59.932Z,3.45
2017-09-17T22:10:26.373Z,3.72
2017-09-17T22:12:52.743Z,4.47
2017-09-17T22:15:19.119Z,4.65
2017-09-17T22:17:45.772Z,4.60
2017-09-17T22:20:12.168Z,5.68
2017-09-17T22:22:39.251Z,6.10
2017-09-17T22:25:05.605Z,6.00
2017-09-17T22:27:31.940Z,6.20
2017-09-17T22:29:58.301Z,5.40
2017-09-17T22:32:25.407Z,6.62
2017-09-17T22:34:51.778Z,6.82
2017-09-17T22:37:18.874Z,6.70
2017-09-17T22:39:45.531Z,4.90
2017-09-17T22:42:11.892Z,5.18
2017-09-17T22:44:38.269Z,4.87
2017-09-17T22:47:04.669Z,3.87
2017-09-17T22:49:31.069Z,3.90
2017-09-17T22:51:57.423Z,3.80
2017-09-17T22:54:23.804Z,3.90
2017-09-17T22:56:50.447Z,4.55
2017-09-17T22:59:16.779Z,4.65
2017-09-17T23:01:43.122Z,5.30
2017-09-17T23:04:09.468Z,5.07
2017-09-17T23:06:36.583Z,5.00
2017-09-17T23:09:03.022Z,4.53
2017-09-17T23:11:30.105Z,3.80
2017-09-17T23:13:56.391Z,4.03
2017-09-17T23:16:22.728Z,3.50
2017-09-17T23:18:50.166Z,3.80
2017-09-17T23:21:16.525Z,4.20
2017-09-17T23:23:43.643Z,4.65
2017-09-17T23:26:10.030Z,4.25
2017-09-17T23:28:36.354Z,4.43
2017-09-17T23:31:02.713Z,3.78
2017-09-17T23:33:29.797Z,4.82
2017-09-17T23:35:56.883Z,4.35
2017-09-17T23:38:30.104Z,3.78
2017-09-17T23:40:56.437Z,4.62
2017-09-17T23:43:22.799Z,5.03
2017-09-17T23:45:50.228Z,4.40
2017-09-17T23:48:16.590Z,5.10
2017-09-17T23:50:42.939Z,4.53
2017-09-17T23:53:09.324Z,5.57
2017-09-17T23:55:35.646Z,5.90
2017-09-17T23:58:02.035Z,5.25
